sensor_id;sensor_type;location;lat;lon;timestamp;pressure;altitude;pressure_sealevel;temperature;humidity
69842;BME280;57138;51.326;-0.068;2022-10-10T00:02:13;99309.69;;;11.62;75.69
69842;BME280;57138;51.326;-0.068;2022-10-10T00:04:41;99293.69;;;11.56;75.38
69842;BME280;57138;51.326;-0.068;2022-10-10T00:07:07;99325.66;;;11.76;75.45
69842;BME280;57138;51.326;-0.068;2022-10-10T00:09:32;99317.41;;;11.77;75.40
69842;BME280;57138;51.326;-0.068;2022-10-10T00:11:57;99264.94;;;11.44;75.63
69842;BME280;57138;51.326;-0.068;2022-10-10T00:14:23;99302.22;;;11.71;75.72
69842;BME280;57138;51.326;-0.068;2022-10-10T00:16:48;99304.66;;;11.73;75.38
69842;BME280;57138;51.326;-0.068;2022-10-10T00:19:14;99312.06;;;11.77;75.41
69842;BME280;57138;51.326;-0.068;2022-10-10T00:21:39;99307.28;;;11.79;75.53
69842;BME280;57138;51.326;-0.068;2022-10-10T00:24:05;99301.78;;;11.74;75.86
69842;BME280;57138;51.326;-0.068;2022-10-10T00:26:31;99303.00;;;11.78;75.77
69842;BME280;57138;51.326;-0.068;2022-10-10T00:28:56;99321.00;;;11.90;76.19
69842;BME280;57138;51.326;-0.068;2022-10-10T00:31:22;99312.97;;;11.90;76.18
69842;BME280;57138;51.326;-0.068;2022-10-10T00:33:48;99290.19;;;11.80;75.55
69842;BME280;57138;51.326;-0.068;2022-10-10T00:36:14;99312.72;;;11.98;75.47
69842;BME280;57138;51.326;-0.068;2022-10-10T00:38:40;99299.75;;;11.95;75.55
69842;BME280;57138;51.326;-0.068;2022-10-10T00:41:06;99306.94;;;12.01;75.66
69842;BME280;57138;51.326;-0.068;2022-10-10T00:43:33;99267.28;;;11.84;75.48
69842;BME280;57138;51.326;-0.068;2022-10-10T00:45:58;99289.88;;;11.95;75.75
69842;BME280;57138;51.326;-0.068;2022-10-10T00:48:30;99266.22;;;11.85;75.82
69842;BME280;57138;51.326;-0.068;2022-10-10T00:51:00;99269.97;;;11.84;75.62
69842;BME280;57138;51.326;-0.068;2022-10-10T00:53:49;99309.78;;;12.06;76.11
69842;BME280;57138;51.326;-0.068;2022-10-10T00:56:19;99305.75;;;11.97;75.65
69842;BME280;57138;51.326;-0.068;2022-10-10T00:58:47;99309.81;;;11.99;75.69
69842;BME280;57138;51.326;-0.068;2022-10-10T01:01:15;99298.38;;;11.92;75.60
69842;BME280;57138;51.326;-0.068;2022-10-10T01:03:41;99290.75;;;11.89;75.66
69842;BME280;57138;51.326;-0.068;2022-10-10T01:06:07;99277.81;;;11.79;76.03
69842;BME280;57138;51.326;-0.068;2022-10-10T01:08:32;99277.38;;;11.82;76.04
69842;BME280;57138;51.326;-0.068;2022-10-10T01:16:33;99323.31;;;12.11;76.46
69842;BME280;57138;51.326;-0.068;2022-10-10T01:27:29;99301.19;;;11.97;76.72
69842;BME280;57138;51.326;-0.068;2022-10-10T01:30:14;99335.00;;;12.17;76.52
69842;BME280;57138;51.326;-0.068;2022-10-10T01:33:06;99338.53;;;12.17;76.83
69842;BME280;57138;51.326;-0.068;2022-10-10T01:35:52;99332.53;;;12.15;76.92
69842;BME280;57138;51.326;-0.068;2022-10-10T01:38:42;99312.28;;;12.01;76.94
69842;BME280;57138;51.326;-0.068;2022-10-10T01:41:21;99330.78;;;12.09;76.88
69842;BME280;57138;51.326;-0.068;2022-10-10T01:43:56;99301.22;;;11.91;77.40
69842;BME280;57138;51.326;-0.068;2022-10-10T01:46:22;99320.53;;;11.99;77.52
69842;BME280;57138;51.326;-0.068;2022-10-10T01:48:49;99325.88;;;12.06;77.42
69842;BME280;57138;51.326;-0.068;2022-10-10T01:59:52;99320.31;;;12.01;78.34
69842;BME280;57138;51.326;-0.068;2022-10-10T02:02:34;99303.28;;;11.88;78.00
69842;BME280;57138;51.326;-0.068;2022-10-10T02:05:36;99334.25;;;12.10;78.33
69842;BME280;57138;51.326;-0.068;2022-10-10T02:07:57;99334.06;;;12.11;77.81
69842;BME280;57138;51.326;-0.068;2022-10-10T02:10:30;99323.19;;;12.06;78.39
69842;BME280;57138;51.326;-0.068;2022-10-10T02:12:59;99320.50;;;12.06;78.22
69842;BME280;57138;51.326;-0.068;2022-10-10T02:15:29;99327.63;;;12.12;78.26
69842;BME280;57138;51.326;-0.068;2022-10-10T02:17:56;99328.63;;;12.18;78.67
69842;BME280;57138;51.326;-0.068;2022-10-10T02:20:24;99325.50;;;12.21;78.61
69842;BME280;57138;51.326;-0.068;2022-10-10T02:22:52;99294.16;;;12.03;78.98
69842;BME280;57138;51.326;-0.068;2022-10-10T02:25:25;99281.63;;;11.97;78.82
69842;BME280;57138;51.326;-0.068;2022-10-10T02:28:13;99324.47;;;12.22;78.88
69842;BME280;57138;51.326;-0.068;2022-10-10T02:30:43;99312.53;;;12.18;78.39
69842;BME280;57138;51.326;-0.068;2022-10-10T02:33:12;99320.50;;;12.25;78.35
69842;BME280;57138;51.326;-0.068;2022-10-10T02:35:42;99299.38;;;12.16;78.66
69842;BME280;57138;51.326;-0.068;2022-10-10T02:38:12;99315.16;;;12.25;78.79
69842;BME280;57138;51.326;-0.068;2022-10-10T02:40:41;99313.66;;;12.29;78.92
69842;BME280;57138;51.326;-0.068;2022-10-10T02:43:08;99276.34;;;12.09;78.79
69842;BME280;57138;51.326;-0.068;2022-10-10T02:45:35;99313.22;;;12.32;78.97
69842;BME280;57138;51.326;-0.068;2022-10-10T02:48:01;99317.69;;;12.38;78.67
69842;BME280;57138;51.326;-0.068;2022-10-10T02:50:28;99272.88;;;12.08;78.70
69842;BME280;57138;51.326;-0.068;2022-10-10T02:52:54;99324.28;;;12.42;78.67
69842;BME280;57138;51.326;-0.068;2022-10-10T02:55:20;99322.16;;;12.44;78.79
69842;BME280;57138;51.326;-0.068;2022-10-10T02:57:45;99320.75;;;12.41;78.64
69842;BME280;57138;51.326;-0.068;2022-10-10T03:00:11;99321.38;;;12.44;78.67
69842;BME280;57138;51.326;-0.068;2022-10-10T03:02:37;99330.34;;;12.49;78.76
69842;BME280;57138;51.326;-0.068;2022-10-10T03:05:02;99330.13;;;12.51;78.73
69842;BME280;57138;51.326;-0.068;2022-10-10T03:07:28;99307.19;;;12.36;78.81
69842;BME280;57138;51.326;-0.068;2022-10-10T03:09:54;99322.09;;;12.51;78.95
69842;BME280;57138;51.326;-0.068;2022-10-10T03:12:19;99327.69;;;12.49;78.68
69842;BME280;57138;51.326;-0.068;2022-10-10T03:14:44;99334.84;;;12.55;79.41
69842;BME280;57138;51.326;-0.068;2022-10-10T03:17:10;99335.28;;;12.52;78.91
69842;BME280;57138;51.326;-0.068;2022-10-10T03:19:36;99321.28;;;12.50;79.06
69842;BME280;57138;51.326;-0.068;2022-10-10T03:22:01;99306.09;;;12.44;78.96
69842;BME280;57138;51.326;-0.068;2022-10-10T03:24:27;99318.59;;;12.50;79.26
69842;BME280;57138;51.326;-0.068;2022-10-10T03:26:52;99316.72;;;12.51;79.04
69842;BME280;57138;51.326;-0.068;2022-10-10T03:29:18;99316.16;;;12.49;79.30
69842;BME280;57138;51.326;-0.068;2022-10-10T03:31:43;99335.44;;;12.57;79.20
69842;BME280;57138;51.326;-0.068;2022-10-10T03:34:09;99336.63;;;12.62;79.31
69842;BME280;57138;51.326;-0.068;2022-10-10T03:36:34;99312.66;;;12.48;79.21
69842;BME280;57138;51.326;-0.068;2022-10-10T03:39:00;99291.94;;;12.37;79.52
69842;BME280;57138;51.326;-0.068;2022-10-10T03:41:25;99340.50;;;12.66;79.79
69842;BME280;57138;51.326;-0.068;2022-10-10T03:43:51;99309.34;;;12.46;79.33
69842;BME280;57138;51.326;-0.068;2022-10-10T03:46:17;99336.31;;;12.70;79.08
69842;BME280;57138;51.326;-0.068;2022-10-10T03:48:42;99311.31;;;12.57;79.52
69842;BME280;57138;51.326;-0.068;2022-10-10T03:51:08;99330.38;;;12.68;79.22
69842;BME280;57138;51.326;-0.068;2022-10-10T03:53:33;99335.06;;;12.72;79.32
69842;BME280;57138;51.326;-0.068;2022-10-10T03:55:59;99330.13;;;12.69;79.68
69842;BME280;57138;51.326;-0.068;2022-10-10T03:58:24;99325.66;;;12.63;79.91
69842;BME280;57138;51.326;-0.068;2022-10-10T04:00:54;99343.00;;;12.79;79.63
69842;BME280;57138;51.326;-0.068;2022-10-10T04:03:21;99318.81;;;12.67;79.35
69842;BME280;57138;51.326;-0.068;2022-10-10T04:05:46;99322.22;;;12.74;79.32
69842;BME280;57138;51.326;-0.068;2022-10-10T04:08:12;99341.09;;;12.86;79.19
69842;BME280;57138;51.326;-0.068;2022-10-10T04:10:38;99324.25;;;12.79;79.27
69842;BME280;57138;51.326;-0.068;2022-10-10T04:13:03;99330.66;;;12.78;79.25
69842;BME280;57138;51.326;-0.068;2022-10-10T04:15:28;99335.28;;;12.89;79.61
69842;BME280;57138;51.326;-0.068;2022-10-10T04:17:55;99342.28;;;12.90;79.17
69842;BME280;57138;51.326;-0.068;2022-10-10T04:20:21;99291.03;;;12.62;79.38
69842;BME280;57138;51.326;-0.068;2022-10-10T04:22:46;99320.06;;;12.83;79.39
69842;BME280;57138;51.326;-0.068;2022-10-10T04:25:12;99332.44;;;12.84;79.39
69842;BME280;57138;51.326;-0.068;2022-10-10T04:27:37;99325.53;;;12.76;79.23
69842;BME280;57138;51.326;-0.068;2022-10-10T04:30:04;99332.91;;;12.81;79.40
69842;BME280;57138;51.326;-0.068;2022-10-10T04:32:30;99357.94;;;12.93;79.15
69842;BME280;57138;51.326;-0.068;2022-10-10T04:34:55;99365.38;;;12.91;79.77
69842;BME280;57138;51.326;-0.068;2022-10-10T04:37:25;99361.06;;;12.90;79.83
69842;BME280;57138;51.326;-0.068;2022-10-10T04:39:52;99368.66;;;12.93;79.92
69842;BME280;57138;51.326;-0.068;2022-10-10T04:42:18;99373.34;;;12.98;79.98
69842;BME280;57138;51.326;-0.068;2022-10-10T04:44:43;99366.13;;;12.99;79.72
69842;BME280;57138;51.326;-0.068;2022-10-10T04:47:08;99369.38;;;13.01;79.95
69842;BME280;57138;51.326;-0.068;2022-10-10T04:49:34;99369.84;;;12.98;79.78
69842;BME280;57138;51.326;-0.068;2022-10-10T04:51:59;99365.38;;;12.91;79.98
69842;BME280;57138;51.326;-0.068;2022-10-10T04:54:25;99360.00;;;12.91;79.86
69842;BME280;57138;51.326;-0.068;2022-10-10T04:56:50;99375.94;;;13.05;80.09
69842;BME280;57138;51.326;-0.068;2022-10-10T04:59:19;99379.91;;;13.02;79.82
69842;BME280;57138;51.326;-0.068;2022-10-10T05:01:45;99380.06;;;13.07;79.81
69842;BME280;57138;51.326;-0.068;2022-10-10T05:04:10;99373.03;;;13.06;79.91
69842;BME280;57138;51.326;-0.068;2022-10-10T05:06:37;99337.44;;;12.81;79.91
69842;BME280;57138;51.326;-0.068;2022-10-10T05:09:02;99381.31;;;13.05;80.25
69842;BME280;57138;51.326;-0.068;2022-10-10T05:11:28;99362.47;;;12.93;80.34
69842;BME280;57138;51.326;-0.068;2022-10-10T05:13:53;99374.31;;;13.04;80.03
69842;BME280;57138;51.326;-0.068;2022-10-10T05:16:18;99371.03;;;13.02;79.88
69842;BME280;57138;51.326;-0.068;2022-10-10T05:18:44;99366.25;;;13.04;80.28
69842;BME280;57138;51.326;-0.068;2022-10-10T05:21:09;99366.13;;;12.99;80.41
69842;BME280;57138;51.326;-0.068;2022-10-10T05:23:36;99390.69;;;13.14;80.51
69842;BME280;57138;51.326;-0.068;2022-10-10T05:26:03;99396.66;;;13.16;80.21
69842;BME280;57138;51.326;-0.068;2022-10-10T05:28:29;99381.69;;;13.08;80.18
69842;BME280;57138;51.326;-0.068;2022-10-10T05:30:54;99376.97;;;13.04;80.53
69842;BME280;57138;51.326;-0.068;2022-10-10T05:33:20;99389.50;;;13.10;80.46
69842;BME280;57138;51.326;-0.068;2022-10-10T05:35:45;99385.19;;;13.09;80.80
69842;BME280;57138;51.326;-0.068;2022-10-10T05:38:11;99380.88;;;13.08;80.93
69842;BME280;57138;51.326;-0.068;2022-10-10T05:40:40;99412.09;;;13.21;80.90
69842;BME280;57138;51.326;-0.068;2022-10-10T05:43:06;99401.00;;;13.17;80.62
69842;BME280;57138;51.326;-0.068;2022-10-10T05:45:32;99418.25;;;13.21;80.75
69842;BME280;57138;51.326;-0.068;2022-10-10T05:47:57;99419.91;;;13.22;80.73
69842;BME280;57138;51.326;-0.068;2022-10-10T05:50:31;99380.13;;;13.01;81.17
69842;BME280;57138;51.326;-0.068;2022-10-10T05:52:57;99408.91;;;13.12;80.89
69842;BME280;57138;51.326;-0.068;2022-10-10T05:55:23;99426.94;;;13.23;81.04
69842;BME280;57138;51.326;-0.068;2022-10-10T05:57:48;99426.94;;;13.23;81.52
69842;BME280;57138;51.326;-0.068;2022-10-10T06:00:14;99432.13;;;13.18;81.18
69842;BME280;57138;51.326;-0.068;2022-10-10T06:02:39;99448.41;;;13.23;81.28
69842;BME280;57138;51.326;-0.068;2022-10-10T06:05:05;99434.91;;;13.11;81.05
69842;BME280;57138;51.326;-0.068;2022-10-10T06:07:31;99427.97;;;13.04;81.28
69842;BME280;57138;51.326;-0.068;2022-10-10T06:09:56;99446.94;;;13.09;81.26
69842;BME280;57138;51.326;-0.068;2022-10-10T06:12:22;99440.81;;;13.02;81.44
69842;BME280;57138;51.326;-0.068;2022-10-10T06:14:47;99482.69;;;13.21;81.68
69842;BME280;57138;51.326;-0.068;2022-10-10T06:17:13;99470.41;;;13.13;81.03
69842;BME280;57138;51.326;-0.068;2022-10-10T06:19:38;99471.66;;;13.11;81.65
69842;BME280;57138;51.326;-0.068;2022-10-10T06:22:04;99462.84;;;13.04;81.67
69842;BME280;57138;51.326;-0.068;2022-10-10T06:24:30;99484.88;;;13.12;82.00
69842;BME280;57138;51.326;-0.068;2022-10-10T06:26:55;99486.56;;;13.07;82.06
69842;BME280;57138;51.326;-0.068;2022-10-10T06:29:21;99477.91;;;12.86;82.22
69842;BME280;57138;51.326;-0.068;2022-10-10T06:31:46;99513.69;;;12.99;82.45
69842;BME280;57138;51.326;-0.068;2022-10-10T06:34:12;99516.69;;;12.90;83.01
69842;BME280;57138;51.326;-0.068;2022-10-10T06:36:37;99520.25;;;12.84;82.69
69842;BME280;57138;51.326;-0.068;2022-10-10T06:39:03;99505.13;;;12.65;83.74
69842;BME280;57138;51.326;-0.068;2022-10-10T06:41:29;99501.09;;;12.55;84.05
69842;BME280;57138;51.326;-0.068;2022-10-10T06:43:54;99536.28;;;12.66;83.96
69842;BME280;57138;51.326;-0.068;2022-10-10T06:46:20;99518.69;;;12.45;84.00
69842;BME280;57138;51.326;-0.068;2022-10-10T06:48:45;99535.00;;;12.43;84.09
69842;BME280;57138;51.326;-0.068;2022-10-10T06:51:13;99550.06;;;12.44;84.30
69842;BME280;57138;51.326;-0.068;2022-10-10T06:53:40;99516.25;;;12.11;84.04
69842;BME280;57138;51.326;-0.068;2022-10-10T06:56:07;99571.41;;;12.26;84.47
69842;BME280;57138;51.326;-0.068;2022-10-10T06:58:34;99544.81;;;11.92;84.42
69842;BME280;57138;51.326;-0.068;2022-10-10T07:01:01;99585.56;;;12.01;84.95
69842;BME280;57138;51.326;-0.068;2022-10-10T07:03:28;99604.53;;;11.99;85.00
69842;BME280;57138;51.326;-0.068;2022-10-10T07:05:59;99618.34;;;11.90;85.08
69842;BME280;57138;51.326;-0.068;2022-10-10T07:08:26;99613.84;;;11.83;85.70
69842;BME280;57138;51.326;-0.068;2022-10-10T07:10:52;99620.25;;;11.76;85.71
69842;BME280;57138;51.326;-0.068;2022-10-10T07:13:18;99606.50;;;11.59;86.74
69842;BME280;57138;51.326;-0.068;2022-10-10T07:15:43;99606.31;;;11.54;86.53
69842;BME280;57138;51.326;-0.068;2022-10-10T07:18:09;99627.31;;;11.57;86.69
69842;BME280;57138;51.326;-0.068;2022-10-10T07:20:35;99624.47;;;11.38;86.71
69842;BME280;57138;51.326;-0.068;2022-10-10T07:23:03;99632.28;;;11.40;87.03
69842;BME280;57138;51.326;-0.068;2022-10-10T07:25:29;99643.59;;;11.42;86.89
69842;BME280;57138;51.326;-0.068;2022-10-10T07:27:55;99672.22;;;11.41;86.94
69842;BME280;57138;51.326;-0.068;2022-10-10T07:30:22;99684.59;;;11.29;85.49
69842;BME280;57138;51.326;-0.068;2022-10-10T07:32:48;99665.00;;;10.95;84.46
69842;BME280;57138;51.326;-0.068;2022-10-10T07:35:13;99660.66;;;10.67;83.39
69842;BME280;57138;51.326;-0.068;2022-10-10T07:37:39;99710.69;;;10.80;83.11
69842;BME280;57138;51.326;-0.068;2022-10-10T07:40:05;99732.63;;;10.62;82.84
69842;BME280;57138;51.326;-0.068;2022-10-10T07:42:33;99728.06;;;10.42;82.83
69842;BME280;57138;51.326;-0.068;2022-10-10T07:44:59;99741.16;;;10.37;83.09
69842;BME280;57138;51.326;-0.068;2022-10-10T07:47:24;99755.47;;;10.30;83.58
69842;BME280;57138;51.326;-0.068;2022-10-10T07:49:50;99757.50;;;10.21;83.67
69842;BME280;57138;51.326;-0.068;2022-10-10T07:52:15;99766.53;;;10.20;83.36
69842;BME280;57138;51.326;-0.068;2022-10-10T07:54:41;99742.38;;;10.00;82.63
69842;BME280;57138;51.326;-0.068;2022-10-10T07:57:07;99758.59;;;9.98;82.23
69842;BME280;57138;51.326;-0.068;2022-10-10T07:59:33;99778.06;;;9.92;82.01
69842;BME280;57138;51.326;-0.068;2022-10-10T08:01:58;99773.44;;;9.73;83.00
69842;BME280;57138;51.326;-0.068;2022-10-10T08:04:24;99791.53;;;9.77;82.73
69842;BME280;57138;51.326;-0.068;2022-10-10T08:06:50;99782.59;;;9.63;82.56
69842;BME280;57138;51.326;-0.068;2022-10-10T08:09:16;99774.28;;;9.51;82.58
69842;BME280;57138;51.326;-0.068;2022-10-10T08:11:41;99796.53;;;9.59;83.10
69842;BME280;57138;51.326;-0.068;2022-10-10T08:14:08;99783.00;;;9.39;82.26
69842;BME280;57138;51.326;-0.068;2022-10-10T08:16:34;99764.56;;;9.22;82.54
69842;BME280;57138;51.326;-0.068;2022-10-10T08:19:00;99816.16;;;9.51;82.96
69842;BME280;57138;51.326;-0.068;2022-10-10T08:21:26;99814.25;;;9.45;82.68
69842;BME280;57138;51.326;-0.068;2022-10-10T08:23:51;99799.53;;;9.27;82.99
69842;BME280;57138;51.326;-0.068;2022-10-10T08:26:17;99823.28;;;9.44;83.49
69842;BME280;57138;51.326;-0.068;2022-10-10T08:28:44;99808.22;;;9.36;83.12
69842;BME280;57138;51.326;-0.068;2022-10-10T08:31:17;99801.16;;;9.28;83.24
69842;BME280;57138;51.326;-0.068;2022-10-10T08:33:43;99828.59;;;9.44;82.94
69842;BME280;57138;51.326;-0.068;2022-10-10T08:36:16;99827.59;;;9.45;83.61
69842;BME280;57138;51.326;-0.068;2022-10-10T08:38:42;99797.91;;;9.33;83.21
69842;BME280;57138;51.326;-0.068;2022-10-10T08:41:27;99796.88;;;9.27;83.55
69842;BME280;57138;51.326;-0.068;2022-10-10T08:43:58;99849.97;;;9.65;83.63
69842;BME280;57138;51.326;-0.068;2022-10-10T08:46:38;99858.88;;;9.73;83.07
69842;BME280;57138;51.326;-0.068;2022-10-10T08:49:20;99847.81;;;9.76;83.33
69842;BME280;57138;51.326;-0.068;2022-10-10T08:51:52;99836.75;;;9.79;83.06
69842;BME280;57138;51.326;-0.068;2022-10-10T08:54:20;99864.81;;;9.96;83.31
69842;BME280;57138;51.326;-0.068;2022-10-10T08:56:47;99860.09;;;9.98;83.37
69842;BME280;57138;51.326;-0.068;2022-10-10T08:59:21;99871.91;;;10.11;82.92
69842;BME280;57138;51.326;-0.068;2022-10-10T09:01:51;99866.16;;;10.14;82.95
69842;BME280;57138;51.326;-0.068;2022-10-10T09:04:18;99870.13;;;10.18;82.39
69842;BME280;57138;51.326;-0.068;2022-10-10T09:10:02;99877.19;;;10.32;81.95
69842;BME280;57138;51.326;-0.068;2022-10-10T09:12:33;99890.44;;;10.40;82.02
69842;BME280;57138;51.326;-0.068;2022-10-10T09:15:23;99887.16;;;10.45;81.17
69842;BME280;57138;51.326;-0.068;2022-10-10T09:18:15;99896.06;;;10.52;81.38
69842;BME280;57138;51.326;-0.068;2022-10-10T09:20:58;99887.66;;;10.55;80.67
69842;BME280;57138;51.326;-0.068;2022-10-10T09:23:32;99901.66;;;10.57;81.23
69842;BME280;57138;51.326;-0.068;2022-10-10T09:26:08;99833.50;;;10.12;80.77
69842;BME280;57138;51.326;-0.068;2022-10-10T09:28:59;99916.69;;;10.58;80.75
69842;BME280;57138;51.326;-0.068;2022-10-10T09:31:39;99907.78;;;10.51;81.09
69842;BME280;57138;51.326;-0.068;2022-10-10T09:36:48;99924.66;;;10.52;80.15
69842;BME280;57138;51.326;-0.068;2022-10-10T09:42:15;99932.56;;;10.67;81.67
69842;BME280;57138;51.326;-0.068;2022-10-10T09:44:42;99933.06;;;10.84;81.53
69842;BME280;57138;51.326;-0.068;2022-10-10T09:47:15;99908.38;;;10.82;80.54
69842;BME280;57138;51.326;-0.068;2022-10-10T09:49:43;99935.88;;;11.10;79.85
69842;BME280;57138;51.326;-0.068;2022-10-10T09:52:27;99936.50;;;11.12;79.04
69842;BME280;57138;51.326;-0.068;2022-10-10T09:55:04;99943.31;;;11.22;78.40
69842;BME280;57138;51.326;-0.068;2022-10-10T09:57:38;99927.44;;;11.13;78.17
69842;BME280;57138;51.326;-0.068;2022-10-10T10:02:47;99952.84;;;11.31;78.37
69842;BME280;57138;51.326;-0.068;2022-10-10T10:05:23;99947.53;;;11.44;77.91
69842;BME280;57138;51.326;-0.068;2022-10-10T10:07:49;99952.31;;;11.56;77.91
69842;BME280;57138;51.326;-0.068;2022-10-10T10:10:25;99945.13;;;11.56;77.96
69842;BME280;57138;51.326;-0.068;2022-10-10T10:12:53;99948.63;;;11.63;77.05
69842;BME280;57138;51.326;-0.068;2022-10-10T10:15:24;99955.63;;;11.64;76.01
69842;BME280;57138;51.326;-0.068;2022-10-10T10:18:10;99975.81;;;11.67;76.01
69842;BME280;57138;51.326;-0.068;2022-10-10T10:20:41;99956.44;;;11.51;75.91
69842;BME280;57138;51.326;-0.068;2022-10-10T10:23:23;99979.09;;;11.62;76.32
69842;BME280;57138;51.326;-0.068;2022-10-10T10:26:03;99985.69;;;11.60;75.87
69842;BME280;57138;51.326;-0.068;2022-10-10T10:28:38;99966.50;;;11.49;75.68
69842;BME280;57138;51.326;-0.068;2022-10-10T10:31:05;99987.34;;;11.61;75.20
69842;BME280;57138;51.326;-0.068;2022-10-10T10:33:48;99994.75;;;11.59;71.87
69842;BME280;57138;51.326;-0.068;2022-10-10T10:53:36;100014.38;;;11.79;72.28
69842;BME280;57138;51.326;-0.068;2022-10-10T11:01:20;100022.50;;;11.93;72.91
69842;BME280;57138;51.326;-0.068;2022-10-10T11:03:54;100027.47;;;12.02;72.64
69842;BME280;57138;51.326;-0.068;2022-10-10T11:09:16;100034.09;;;12.13;66.11
69842;BME280;57138;51.326;-0.068;2022-10-10T11:14:48;100020.69;;;12.07;66.35
69842;BME280;57138;51.326;-0.068;2022-10-10T11:17:18;100043.59;;;12.22;65.03
69842;BME280;57138;51.326;-0.068;2022-10-10T11:19:57;100014.91;;;12.03;63.62
69842;BME280;57138;51.326;-0.068;2022-10-10T11:22:40;100044.41;;;12.23;62.48
69842;BME280;57138;51.326;-0.068;2022-10-10T11:25:21;100027.69;;;12.14;63.17
69842;BME280;57138;51.326;-0.068;2022-10-10T11:28:14;100065.28;;;12.41;59.92
69842;BME280;57138;51.326;-0.068;2022-10-10T11:31:14;100044.03;;;12.33;60.66
69842;BME280;57138;51.326;-0.068;2022-10-10T11:33:46;100061.16;;;12.45;59.25
69842;BME280;57138;51.326;-0.068;2022-10-10T11:36:21;100076.63;;;12.50;60.66
69842;BME280;57138;51.326;-0.068;2022-10-10T11:39:12;100077.03;;;12.60;61.55
69842;BME280;57138;51.326;-0.068;2022-10-10T11:41:53;100072.53;;;12.67;60.31
69842;BME280;57138;51.326;-0.068;2022-10-10T11:44:30;100067.56;;;12.64;59.55
69842;BME280;57138;51.326;-0.068;2022-10-10T11:47:31;100080.16;;;12.77;60.29
69842;BME280;57138;51.326;-0.068;2022-10-10T11:50:20;100075.41;;;12.86;58.49
69842;BME280;57138;51.326;-0.068;2022-10-10T11:53:21;100083.44;;;12.92;55.48
69842;BME280;57138;51.326;-0.068;2022-10-10T11:56:07;100082.00;;;12.97;55.77
69842;BME280;57138;51.326;-0.068;2022-10-10T11:58:47;100073.31;;;12.94;56.99
69842;BME280;57138;51.326;-0.068;2022-10-10T12:01:17;100087.97;;;13.05;56.23
69842;BME280;57138;51.326;-0.068;2022-10-10T12:03:46;100072.50;;;13.01;56.72
69842;BME280;57138;51.326;-0.068;2022-10-10T12:06:37;100097.25;;;13.16;53.66
69842;BME280;57138;51.326;-0.068;2022-10-10T12:11:55;100046.06;;;12.98;55.28
69842;BME280;57138;51.326;-0.068;2022-10-10T12:14:24;100082.97;;;13.29;56.79
69842;BME280;57138;51.326;-0.068;2022-10-10T12:16:51;100075.78;;;13.29;56.03
69842;BME280;57138;51.326;-0.068;2022-10-10T12:19:21;100074.75;;;13.37;55.87
69842;BME280;57138;51.326;-0.068;2022-10-10T12:22:01;100102.38;;;13.58;51.36
69842;BME280;57138;51.326;-0.068;2022-10-10T12:24:37;100072.47;;;13.41;53.97
69842;BME280;57138;51.326;-0.068;2022-10-10T12:27:28;100078.41;;;13.56;53.68
69842;BME280;57138;51.326;-0.068;2022-10-10T12:32:47;100114.47;;;13.87;53.46
69842;BME280;57138;51.326;-0.068;2022-10-10T12:38:22;100117.31;;;13.99;51.43
69842;BME280;57138;51.326;-0.068;2022-10-10T12:41:14;100112.13;;;14.04;51.23
69842;BME280;57138;51.326;-0.068;2022-10-10T12:46:36;100118.50;;;14.16;51.37
69842;BME280;57138;51.326;-0.068;2022-10-10T12:49:23;100113.13;;;14.10;52.54
69842;BME280;57138;51.326;-0.068;2022-10-10T12:52:06;100121.56;;;14.20;52.57
69842;BME280;57138;51.326;-0.068;2022-10-10T12:54:40;100120.53;;;14.21;51.73
69842;BME280;57138;51.326;-0.068;2022-10-10T12:59:37;100124.16;;;14.33;51.43
69842;BME280;57138;51.326;-0.068;2022-10-10T13:02:10;100103.16;;;14.17;52.20
69842;BME280;57138;51.326;-0.068;2022-10-10T13:04:41;100122.13;;;14.29;49.61
69842;BME280;57138;51.326;-0.068;2022-10-10T13:07:17;100139.91;;;14.30;50.05
69842;BME280;57138;51.326;-0.068;2022-10-10T13:09:49;100072.50;;;13.86;50.72
69842;BME280;57138;51.326;-0.068;2022-10-10T13:14:49;100125.44;;;14.24;51.44
69842;BME280;57138;51.326;-0.068;2022-10-10T13:19:52;100135.44;;;14.17;49.50
69842;BME280;57138;51.326;-0.068;2022-10-10T13:22:20;100124.72;;;14.03;50.00
69842;BME280;57138;51.326;-0.068;2022-10-10T13:24:48;100146.16;;;14.24;49.41
69842;BME280;57138;51.326;-0.068;2022-10-10T13:27:28;100140.81;;;14.17;49.52
69842;BME280;57138;51.326;-0.068;2022-10-10T13:29:58;100151.75;;;14.22;50.10
69842;BME280;57138;51.326;-0.068;2022-10-10T13:32:30;100154.44;;;14.22;51.36
69842;BME280;57138;51.326;-0.068;2022-10-10T13:35:02;100136.72;;;14.08;51.31
69842;BME280;57138;51.326;-0.068;2022-10-10T13:37:29;100145.38;;;14.10;51.60
69842;BME280;57138;51.326;-0.068;2022-10-10T13:39:55;100152.81;;;14.14;51.79
69842;BME280;57138;51.326;-0.068;2022-10-10T13:42:34;100156.53;;;14.20;51.03
69842;BME280;57138;51.326;-0.068;2022-10-10T13:45:04;100163.56;;;14.21;52.61
69842;BME280;57138;51.326;-0.068;2022-10-10T13:52:43;100179.91;;;14.19;53.54
69842;BME280;57138;51.326;-0.068;2022-10-10T13:55:24;100185.50;;;14.18;53.03
69842;BME280;57138;51.326;-0.068;2022-10-10T13:57:53;100132.88;;;13.83;53.44
69842;BME280;57138;51.326;-0.068;2022-10-10T14:00:21;100160.72;;;14.02;53.86
69842;BME280;57138;51.326;-0.068;2022-10-10T14:02:48;100186.94;;;14.14;53.07
69842;BME280;57138;51.326;-0.068;2022-10-10T14:05:34;100187.97;;;14.13;52.07
69842;BME280;57138;51.326;-0.068;2022-10-10T14:08:00;100151.25;;;13.87;53.34
69842;BME280;57138;51.326;-0.068;2022-10-10T14:10:27;100195.22;;;14.12;53.86
69842;BME280;57138;51.326;-0.068;2022-10-10T14:12:56;100184.69;;;14.11;53.52
69842;BME280;57138;51.326;-0.068;2022-10-10T14:15:36;100181.81;;;13.99;52.63
69842;BME280;57138;51.326;-0.068;2022-10-10T14:18:21;100211.19;;;14.07;53.13
69842;BME280;57138;51.326;-0.068;2022-10-10T14:20:48;100214.28;;;14.04;53.64
69842;BME280;57138;51.326;-0.068;2022-10-10T14:23:14;100196.53;;;13.96;53.83
69842;BME280;57138;51.326;-0.068;2022-10-10T14:25:42;100186.81;;;13.82;53.21
69842;BME280;57138;51.326;-0.068;2022-10-10T14:28:17;100162.09;;;13.66;53.62
69842;BME280;57138;51.326;-0.068;2022-10-10T14:30:44;100189.31;;;13.77;54.06